Flight Track Log - Related Links

Times and Time Zones

All times are in EST time to prevent confusion due to time zone crossing. See the UCA3596 flight status page for this flight to view local times or setup timezone preferences in your user account.

Time Position Orientation Groundspeed Altitude Reporting Facility
EST Latitude Longitude Course Direction KTS MPH feet Rate Location/Type
Mon 03:12:00 PM 41.5321 -76.2995 19° North  Level Estimated
Mon 03:13:00 PM 41.6079 -76.2640 19° North  Level Estimated
Mon 03:14:00 PM 41.6838 -76.2284 19° North  Level Estimated
Mon 03:15:00 PM 41.7596 -76.1927 19° North  Level Estimated
Mon 03:16:00 PM 41.8068 -76.1704 19° North  Level Estimated
Mon 03:17:00 PM 41.8541 -76.1481 19° North  Level Estimated
Mon 03:18:00 PM 41.9013 -76.1258 19° North  Level Estimated
Mon 03:19:00 PM 41.9485 -76.1034 19° North  Level Estimated
Mon 03:20:00 PM 41.9958 -76.0810 19° North  Level Estimated
Mon 03:21:00 PM 42.0430 -76.0585 19° North  Level Estimated
Mon 03:22:00 PM 42.0902 -76.0360 19° North  Level Estimated
Mon 03:23:00 PM 42.1374 -76.0135 19° North  Level Estimated
Mon 03:24:00 PM 42.1846 -75.9910 19° North  Level Estimated
Mon 03:25:00 PM 42.2084 -75.9796 20° North  Level Estimated
Mon 03:26:00 PM 42.2084 -75.9796 35° Northeast  Level Estimated
Mon 03:27:00 PM 42.2084 -75.9796 35° Northeast  Level Estimated
Mon 03:28:00 PM 42.2084 -75.9796 35° Northeast  Level Estimated
Mon 03:29:00 PM 42.2084 -75.9796 35° Northeast  Level Estimated
Mon 03:30:00 PM 42.2084 -75.9796 35° Northeast  Level Estimated
Mon 03:31:00 PM 42.2084 -75.9796 35° Northeast  Level Estimated
Mon 03:32:00 PM 42.2084 -75.9796 35° Northeast  Level Estimated
Mon 03:33:00 PM 42.2084 -75.9796 35° Northeast  Level Estimated
Mon 03:34:00 PM 42.2084 -75.9796 35° Northeast  Level Estimated
Mon 03:35:00 PM 42.2084 -75.9796 35° Northeast  Level Estimated
Mon 03:36:00 PM 42.2084 -75.9796 35° Northeast  Level Estimated
Mon 03:37:00 PM 42.2084 -75.9796 35° Northeast  Level Estimated
Mon 03:38:00 PM 42.2084 -75.9796 35° Northeast  Level Estimated
Mon 03:39:00 PM 42.2084 -75.9796 35° Northeast  Level Estimated
Mon 03:40:00 PM 42.2084 -75.9796 35° Northeast  Level Estimated
Mon 03:41:00 PM 42.2084 -75.9796 35° Northeast  Level Estimated
Mon 03:42:00 PM 42.2084 -75.9796 35° Northeast  Level Estimated
Mon 03:43:00 PM 42.2084 -75.9796 35° Northeast  Level Estimated
Mon 03:44:00 PM 42.2084 -75.9796 35° Northeast  Level Estimated
Mon 03:45:00 PM 42.2084 -75.9796 35° Northeast  Level Estimated
Mon 03:46:00 PM 42.2084 -75.9796 35° Northeast  Level Estimated
Mon 03:47:00 PM 42.2084 -75.9796 35° Northeast  Level Estimated
Mon 03:48:00 PM 42.2084 -75.9796 35° Northeast  Level Estimated
Mon 03:49:00 PM 42.2084 -75.9796 35° Northeast  Level Estimated
Mon 03:50:00 PM 42.2084 -75.9796 35° Northeast  Level Estimated
Mon 03:51:00 PM 42.2084 -75.9796 35° Northeast  Level Estimated
Mon 03:52:00 PM 42.2084 -75.9796 35° Northeast  Level Estimated
Mon 03:53:00 PM 42.2084 -75.9796 35° Northeast  Level Estimated
Mon 03:54:00 PM 42.2084 -75.9796 35° Northeast  Level Estimated
Mon 03:55:00 PM 42.2084 -75.9796 35° Northeast  Level Estimated
Mon 03:56:00 PM 42.2084 -75.9796 35° Northeast  Level Estimated
Mon 03:57:00 PM 42.2084 -75.9796 35° Northeast  Level Estimated
Mon 03:58:00 PM 42.2084 -75.9796 35° Northeast  Level Estimated
Mon 03:59:00 PM 42.2084 -75.9796 35° Northeast  Level Estimated
Mon 04:00:00 PM 42.2084 -75.9796 35° Northeast  Level Estimated
Mon 04:01:00 PM 42.2084 -75.9796 35° Northeast  Level Estimated
Mon 04:02:00 PM 42.2084 -75.9796 35° Northeast  Level Estimated
Mon 04:03:00 PM 42.2084 -75.9796 35° Northeast  Level Estimated

Login

Don't have an account? Register now (free) for customized features, flight alerts, and more!